LFQQ/LIL METAR and TAF weather

Enter ICAO airport designator
Station Type Date Time Source
LFQQ METAR 2019/06/17 12:30 UTC NOAA

LFQQ 171230Z AUTO 20007KT 150V250 9999 SCT046 BKN054 24/12 Q1018 NOSIG


Station Type Date Time Source
LFQQ Decoded METAR 2019/06/17 12:30 UTC NOAA

Lille, France (LFQQ) 50-34N 003-06E 52M
Jun 17, 2019 - 08:30 AM EDT / 2019.06.17 1230 UTC
Wind: from the SSW (200 degrees) at 8 MPH (7 KT) (direction variable):0
Visibility: greater than 7 mile(s):0
Sky conditions: mostly cloudy
Temperature: 75 F (24 C)
Dew Point: 53 F (12 C)
Relative Humidity: 46%
Pressure (altimeter): 30.06 in. Hg (1018 hPa)
ob: LFQQ 171230Z AUTO 20007KT 150V250 9999 SCT046 BKN054 24/12 Q1018 NOSIG
cycle: 12

Station Type Date Time Source
LFQQ TAF 2019/06/17 12:21 UTC NOAA

TAF LFQQ 171100Z 1712/1818 19007KT 9999 SCT040
TEMPO 1816/1818 4000 SHRA BKN050CB PROB30
TEMPO 1816/1818 VRB20G35KT 1200 TSRAGR

Example: see airport list